Portada
METAR-TAF:

METAR-TAF

Aeropuertos :

Barrancabermeja, Colombia

Aeropuerto Yariguíes

latitud: 07-01N, longitud: 073-48W, altitud: 126 m

Observación

El informe se hizo hace 37 minutos, a las 15:00 UTC
Viento 2 kt con dirección variable
Temperatura 27°C
Humedad 84%
Presión 1012 hPa
Visibilidad 10 km o más
Nubes dispersas a una altura de 1000 ft
Cielo nuboso a una altura de 12000 ft

METAR: SKEJ 201500Z VRB02KT 9999 SCT010 BKN120 27/24 A2987

Hora: 10:37 (15:37 UTC)


TAF: falta

Observaciones y pronósticos meteorológicos de más de 4000 aeropuertos (mensajes METAR y TAF).

Los puntos amarillos y rojos representan las estaciones disponibles.

Ponga el ratón en el punto deseado para ver el nombre de la estación.

Haga clic para ver las observaciones y los pronósticos meteorológicos.

Para cambiar el mapa : haga clic en los botones verdes con una cruz de color negro para hacer un zoom, en el botón verde con un guión para alejar o en las flechas verdes para mapas adyacentes.


METAR-TAF: